Time;durP1;ratioP1;P1;durP2;ratioP2;P2;SDS_P1;SDS_P2;PMS_P1;PMS_P2;Temp;Humidity;BMP_temperature;BMP_pressure;BME280_temperature;BME280_humidity;BME280_pressure;Samples;Min_cycle;Max_cycle;Signal;HPM_P1;HPM_P2
2024/01/17 00:01:44;;;;;;;;;;;;;;;15.55;38.47;101050.84;4945187;29;1018;-45
2024/01/17 00:04:09;;;;;;;;;;;;;;;16.02;37.80;101044.41;4957586;28;1133;-49
2024/01/17 00:06:35;;;;;;;;;;;;;;;17.28;35.35;101047.47;4951030;28;912;-44
2024/01/17 00:09:00;;;;;;;;;;;;;;;16.43;36.67;101047.03;4957355;28;1570;-45
2024/01/17 00:11:26;;;;;;;;;;;;;;;15.83;37.65;101044.72;4957128;28;1034;-44
2024/01/17 00:13:51;;;;;;;;;;;;;;;15.53;38.28;101049.25;4957274;28;1936;-45
2024/01/17 00:16:21;;;;;;;;;;;;;;;16.13;37.49;101064.94;4957285;28;1129;-46
2024/01/17 00:18:47;;;;;;;;;;;;;;;17.43;35.09;101058.84;4956592;28;901;-44
2024/01/17 00:21:12;;;;;;;;;;;;;;;16.59;36.13;101065.44;4957402;28;1072;-43
2024/01/17 00:23:38;;;;;;;;;;;;;;;15.94;37.66;101067.91;4957123;28;1204;-46
2024/01/17 00:26:04;;;;;;;;;;;;;;;15.64;38.23;101068.00;4957359;28;1092;-46
2024/01/17 00:28:29;;;;;;;;;;;;;;;15.69;38.16;101058.88;4956703;28;1123;-42
2024/01/17 00:30:55;;;;;;;;;;;;;;;17.08;35.72;101058.53;4950231;28;919;-46
2024/01/17 00:33:21;;;;;;;;;;;;;;;16.99;35.25;101049.41;4944477;28;1180;-45
2024/01/17 00:35:47;;;;;;;;;;;;;;;16.14;37.24;101046.25;4957311;28;1056;-44
2024/01/17 00:38:12;;;;;;;;;;;;;;;15.71;37.98;101041.06;4956832;28;1969;-47
2024/01/17 00:40:38;;;;;;;;;;;;;;;15.45;38.55;101039.13;4946581;29;1030;-47
2024/01/17 00:43:04;;;;;;;;;;;;;;;16.78;36.17;101035.81;4947557;28;1140;-49
2024/01/17 00:45:29;;;;;;;;;;;;;;;17.39;34.93;101031.59;4961089;28;2695;-45
2024/01/17 00:47:55;;;;;;;;;;;;;;;16.27;37.03;101029.47;4960500;28;1132;-47
2024/01/17 00:50:21;;;;;;;;;;;;;;;15.78;37.91;101027.28;4959002;28;1029;-44
2024/01/17 00:52:46;;;;;;;;;;;;;;;15.53;38.56;101028.06;4960644;28;1068;-46
2024/01/17 00:55:12;;;;;;;;;;;;;;;16.31;36.93;101028.34;4960018;28;1243;-46
2024/01/17 00:57:38;;;;;;;;;;;;;;;17.40;34.88;101027.97;4960202;28;1935;-46
2024/01/17 01:00:04;;;;;;;;;;;;;;;16.40;36.67;101011.78;4960051;28;1013;-42
2024/01/17 01:02:30;;;;;;;;;;;;;;;15.79;37.88;101007.78;4960034;28;1012;-43
2024/01/17 01:04:56;;;;;;;;;;;;;;;15.50;38.30;101012.31;4960235;28;1128;-46
2024/01/17 01:07:21;;;;;;;;;;;;;;;16.07;37.30;101002.47;4957442;28;897;-44
2024/01/17 01:09:47;;;;;;;;;;;;;;;17.31;35.21;101008.22;4960067;28;1212;-45
2024/01/17 01:12:13;;;;;;;;;;;;;;;16.71;35.92;100992.03;4960372;28;1072;-46
2024/01/17 01:14:38;;;;;;;;;;;;;;;15.98;37.54;100988.00;4954122;28;2231;-47
2024/01/17 01:17:04;;;;;;;;;;;;;;;15.60;38.05;100972.81;4952902;29;1902;-47
2024/01/17 01:19:29;;;;;;;;;;;;;;;16.16;37.29;100982.44;4959660;28;1131;-48
2024/01/17 01:21:55;;;;;;;;;;;;;;;17.32;34.92;100983.34;4959879;28;1081;-48
2024/01/17 01:24:21;;;;;;;;;;;;;;;16.39;36.45;100977.38;4959025;28;1108;-46
2024/01/17 01:26:47;;;;;;;;;;;;;;;15.78;38.03;100976.91;4959868;28;1049;-47
2024/01/17 01:29:14;;;;;;;;;;;;;;;15.48;38.32;100974.47;4960065;28;1156;-48
2024/01/17 01:31:39;;;;;;;;;;;;;;;15.97;37.71;100978.34;4959640;28;863;-48
2024/01/17 01:34:05;;;;;;;;;;;;;;;17.21;35.33;100976.16;4959432;28;1180;-45
2024/01/17 01:36:31;;;;;;;;;;;;;;;16.73;35.94;100976.84;4959569;28;1906;-49
2024/01/17 01:38:56;;;;;;;;;;;;;;;15.87;37.69;100972.78;4954448;28;1164;-43
2024/01/17 01:41:22;;;;;;;;;;;;;;;15.59;38.21;100977.28;4952183;29;1276;-45
2024/01/17 01:43:47;;;;;;;;;;;;;;;15.54;38.23;100979.38;4953746;28;1729;-46
2024/01/17 01:46:39;;;;;;;;;;;;;;;16.99;35.74;100980.31;4952305;29;1093;-45
2024/01/17 01:49:05;;;;;;;;;;;;;;;16.82;36.03;100977.97;4946939;29;1231;-46
2024/01/17 01:51:31;;;;;;;;;;;;;;;16.04;37.40;100976.16;4958644;28;1172;-42
2024/01/17 01:53:57;;;;;;;;;;;;;;;15.63;38.25;100975.28;4950615;28;1133;-46
2024/01/17 01:56:23;;;;;;;;;;;;;;;15.57;38.48;100973.84;4958549;29;1073;-47
2024/01/17 01:58:48;;;;;;;;;;;;;;;17.09;35.57;100972.56;4959096;28;1053;-48
2024/01/17 02:01:17;;;;;;;;;;;;;;;16.81;35.57;100963.88;4958389;29;1173;-47
2024/01/17 02:03:43;;;;;;;;;;;;;;;15.91;37.54;100966.31;4965065;28;1004;-44
2024/01/17 02:06:10;;;;;;;;;;;;;;;15.57;37.97;100967.69;4940825;29;1148;-45
2024/01/17 02:08:35;;;;;;;;;;;;;;;16.82;36.03;100956.72;4949169;29;1147;-45
2024/01/17 02:11:01;;;;;;;;;;;;;;;16.85;35.55;100961.84;4956614;28;1293;-46
2024/01/17 02:13:26;;;;;;;;;;;;;;;16.02;37.35;100956.81;4947829;29;1859;-45
2024/01/17 02:15:52;;;;;;;;;;;;;;;15.61;37.90;100958.59;4958900;28;1041;-46
2024/01/17 02:18:18;;;;;;;;;;;;;;;16.25;37.06;100955.25;4956581;28;1972;-43
2024/01/17 02:20:43;;;;;;;;;;;;;;;17.41;34.96;100954.38;4954774;29;1041;-46
2024/01/17 02:23:24;;;;;;;;;;;;;;;16.44;36.43;100953.16;4957850;29;971;-46
2024/01/17 02:25:50;;;;;;;;;;;;;;;15.81;37.79;100948.47;4958648;28;989;-47
2024/01/17 02:28:16;;;;;;;;;;;;;;;15.46;38.46;100944.53;4958887;28;1056;-48
2024/01/17 02:30:41;;;;;;;;;;;;;;;16.44;36.79;100947.84;4953959;28;1080;-49
2024/01/17 02:33:07;;;;;;;;;;;;;;;17.47;34.70;100952.13;4938426;29;1014;-47
2024/01/17 02:35:32;;;;;;;;;;;;;;;16.52;36.42;100953.47;4952462;28;1093;-45
2024/01/17 02:37:58;;;;;;;;;;;;;;;15.85;37.73;100953.47;4949962;29;1902;-44
2024/01/17 02:40:23;;;;;;;;;;;;;;;15.46;38.06;100953.34;4958533;28;1014;-46
2024/01/17 02:42:49;;;;;;;;;;;;;;;16.44;36.55;100953.16;4958108;28;1087;-47
2024/01/17 02:45:15;;;;;;;;;;;;;;;17.38;34.63;100958.94;4957915;28;2220;-45
2024/01/17 02:47:40;;;;;;;;;;;;;;;16.38;36.41;100957.09;4958669;28;1116;-47
2024/01/17 02:50:06;;;;;;;;;;;;;;;15.71;37.99;100953.53;4945714;28;1251;-44
2024/01/17 02:52:31;;;;;;;;;;;;;;;15.49;38.45;100949.66;4958409;28;1088;-42
2024/01/17 02:54:57;;;;;;;;;;;;;;;16.23;37.21;100948.38;4956416;28;1087;-46
2024/01/17 02:57:23;;;;;;;;;;;;;;;17.37;34.97;100953.75;4958406;28;1976;-45
2024/01/17 02:59:48;;;;;;;;;;;;;;;16.52;36.12;100953.47;4957010;29;1009;-45
2024/01/17 03:02:14;;;;;;;;;;;;;;;15.87;37.36;100951.56;4949013;28;1212;-46
2024/01/17 03:04:40;;;;;;;;;;;;;;;15.55;38.11;100946.59;4954996;29;998;-47
2024/01/17 03:07:05;;;;;;;;;;;;;;;16.53;36.48;100944.56;4952315;28;1085;-42
2024/01/17 03:09:31;;;;;;;;;;;;;;;17.24;34.74;100945.81;4942616;29;1053;-43
2024/01/17 03:11:57;;;;;;;;;;;;;;;16.11;36.75;100936.78;4958039;28;1018;-46
2024/01/17 03:14:23;;;;;;;;;;;;;;;15.74;37.46;100938.28;4951098;28;2441;-45
2024/01/17 03:16:48;;;;;;;;;;;;;;;15.44;38.28;100939.34;4957552;28;1971;-47
2024/01/17 03:19:14;;;;;;;;;;;;;;;16.72;35.96;100946.75;4943633;28;1049;-48
2024/01/17 03:21:46;;;;;;;;;;;;;;;17.05;35.18;100946.28;4948697;29;1054;-45
2024/01/17 03:24:11;;;;;;;;;;;;;;;16.05;36.71;100940.69;4957966;28;1061;-48
2024/01/17 03:26:37;;;;;;;;;;;;;;;15.60;37.73;100941.00;4957897;28;1040;-47
2024/01/17 03:29:02;;;;;;;;;;;;;;;15.82;37.82;100942.19;4945266;28;1148;-46
2024/01/17 03:31:28;;;;;;;;;;;;;;;17.17;35.37;100942.75;4950599;28;1038;-47
2024/01/17 03:33:53;;;;;;;;;;;;;;;16.57;35.76;100947.81;4951126;29;1224;-45
2024/01/17 03:36:19;;;;;;;;;;;;;;;15.89;37.47;100941.72;4949461;29;1056;-48
2024/01/17 03:38:45;;;;;;;;;;;;;;;15.55;38.04;100944.78;4957646;28;1973;-43
2024/01/17 03:41:10;;;;;;;;;;;;;;;16.00;37.25;100935.69;4958367;28;1103;-46
2024/01/17 03:43:36;;;;;;;;;;;;;;;17.24;34.91;100938.69;4946995;28;1808;-46
2024/01/17 03:46:01;;;;;;;;;;;;;;;16.49;36.13;100943.91;4957942;28;1073;-49
2024/01/17 03:48:27;;;;;;;;;;;;;;;15.86;37.43;100952.53;4957787;28;1060;-47
2024/01/17 03:50:52;;;;;;;;;;;;;;;15.47;37.91;100946.22;4957328;28;1053;-46
2024/01/17 03:53:18;;;;;;;;;;;;;;;16.48;36.67;100942.19;4957448;29;1104;-45
2024/01/17 03:55:44;;;;;;;;;;;;;;;17.50;34.45;100951.03;4949655;28;1024;-47
2024/01/17 03:58:09;;;;;;;;;;;;;;;16.39;36.42;100954.31;4954270;29;1902;-45
2024/01/17 04:00:35;;;;;;;;;;;;;;;15.84;37.37;100961.53;4957711;28;1100;-46
2024/01/17 04:03:00;;;;;;;;;;;;;;;15.53;37.90;100957.28;4945016;28;1209;-41
2024/01/17 04:05:26;;;;;;;;;;;;;;;16.45;36.12;100955.69;4957701;28;1045;-43
2024/01/17 04:07:52;;;;;;;;;;;;;;;17.49;34.44;100952.00;4957176;28;1116;-45
2024/01/17 04:10:17;;;;;;;;;;;;;;;16.49;35.90;100962.50;4957528;28;1148;-45
2024/01/17 04:12:43;;;;;;;;;;;;;;;15.86;37.37;100967.59;4957491;28;1188;-46
2024/01/17 04:15:08;;;;;;;;;;;;;;;15.57;38.07;100968.56;4958139;28;2097;-47
2024/01/17 04:17:35;;;;;;;;;;;;;;;15.90;37.57;100979.69;4960272;28;1972;-44
2024/01/17 04:20:01;;;;;;;;;;;;;;;17.24;34.71;100972.41;4958011;28;1096;-46
2024/01/17 04:22:27;;;;;;;;;;;;;;;16.74;35.43;100975.88;4960885;28;1149;-46
2024/01/17 04:24:53;;;;;;;;;;;;;;;16.01;36.64;100982.53;4948137;28;1101;-44
2024/01/17 04:27:18;;;;;;;;;;;;;;;15.55;37.89;100979.25;4961085;28;1452;-47
2024/01/17 04:29:44;;;;;;;;;;;;;;;16.13;37.06;100975.53;4960794;28;1197;-47
2024/01/17 04:32:10;;;;;;;;;;;;;;;17.35;34.79;100979.63;4952100;28;1005;-47
2024/01/17 04:34:35;;;;;;;;;;;;;;;16.32;36.41;100973.41;4954877;29;1034;-50
2024/01/17 04:37:01;;;;;;;;;;;;;;;15.71;37.34;100978.28;4958751;29;1915;-48
2024/01/17 04:39:27;;;;;;;;;;;;;;;15.47;38.13;100981.56;4961035;28;1204;-46
2024/01/17 04:41:52;;;;;;;;;;;;;;;16.49;36.54;100989.06;4948026;28;1089;-51
2024/01/17 04:44:18;;;;;;;;;;;;;;;17.37;34.32;100978.53;4957302;28;2276;-50
2024/01/17 04:46:44;;;;;;;;;;;;;;;16.38;36.02;100978.34;4960472;28;1021;-51
2024/01/17 04:49:10;;;;;;;;;;;;;;;15.81;37.47;100988.25;4960483;28;1217;-54
2024/01/17 04:51:36;;;;;;;;;;;;;;;15.43;37.99;100988.03;4960297;28;1229;-51
2024/01/17 04:54:01;;;;;;;;;;;;;;;16.67;36.11;100986.06;4960456;28;1209;-47
2024/01/17 04:56:27;;;;;;;;;;;;;;;17.23;34.68;100992.81;4959276;28;1277;-48
2024/01/17 04:58:53;;;;;;;;;;;;;;;16.34;35.75;100987.44;4947930;28;1899;-51
2024/01/17 05:01:18;;;;;;;;;;;;;;;16.12;35.87;100992.41;4958887;29;1408;-49
2024/01/17 05:03:44;;;;;;;;;;;;;;;15.52;37.74;100997.16;4959502;28;914;-56
2024/01/17 05:06:09;;;;;;;;;;;;;;;16.51;36.18;101003.09;4954676;28;1028;-51
2024/01/17 05:08:35;;;;;;;;;;;;;;;17.45;34.25;101001.91;4942420;29;1108;-51
2024/01/17 05:11:01;;;;;;;;;;;;;;;16.37;35.97;101004.03;4954236;29;1018;-50
2024/01/17 05:13:26;;;;;;;;;;;;;;;15.83;36.90;101002.28;4952609;29;2456;-47
2024/01/17 05:15:52;;;;;;;;;;;;;;;15.49;37.80;101007.97;4959810;28;1129;-52
2024/01/17 05:18:17;;;;;;;;;;;;;;;16.27;36.67;101019.72;4959247;28;1907;-51
2024/01/17 05:20:43;;;;;;;;;;;;;;;17.43;34.49;101018.94;4959419;28;878;-50
2024/01/17 05:23:09;;;;;;;;;;;;;;;16.24;36.03;101022.59;4956407;28;1084;-48
2024/01/17 05:25:34;;;;;;;;;;;;;;;15.41;37.92;101025.22;4950587;29;1115;-53
2024/01/17 05:28:00;;;;;;;;;;;;;;;14.83;39.46;101022.59;4959551;28;1303;-52
2024/01/17 05:30:26;;;;;;;;;;;;;;;16.00;37.54;101031.22;4959943;28;1044;-54
2024/01/17 05:32:55;;;;;;;;;;;;;;;15.98;36.84;101029.59;4952224;28;1224;-48
2024/01/17 05:35:22;;;;;;;;;;;;;;;15.15;38.98;101029.50;4949858;28;1084;-43
2024/01/17 05:37:47;;;;;;;;;;;;;;;17.26;34.89;101023.66;4956759;29;1981;-44
2024/01/17 05:40:13;;;;;;;;;;;;;;;16.49;35.71;101034.22;4974865;28;1057;-46
2024/01/17 05:42:39;;;;;;;;;;;;;;;15.53;38.05;101031.53;4959176;28;1021;-45
2024/01/17 05:45:06;;;;;;;;;;;;;;;15.01;39.27;101039.19;4958977;28;2453;-52
2024/01/17 05:47:32;;;;;;;;;;;;;;;17.04;35.43;101029.63;4959458;28;1142;-52
2024/01/17 05:49:57;;;;;;;;;;;;;;;15.57;37.80;101036.63;4956488;28;1052;-47
2024/01/17 05:52:23;;;;;;;;;;;;;;;16.10;37.23;101044.72;4948720;29;1009;-51
2024/01/17 05:54:49;;;;;;;;;;;;;;;16.87;35.22;101039.63;4958413;28;1044;-50
2024/01/17 05:57:15;;;;;;;;;;;;;;;15.47;38.22;101042.53;4958174;28;1902;-49
2024/01/17 05:59:40;;;;;;;;;;;;;;;16.62;36.28;101052.81;4955669;28;1085;-45
2024/01/17 06:02:06;;;;;;;;;;;;;;;16.88;35.64;101054.63;4952765;29;1339;-48
2024/01/17 06:04:33;;;;;;;;;;;;;;;15.54;38.00;101053.59;4958825;28;976;-49
2024/01/17 06:06:58;;;;;;;;;;;;;;;16.49;36.55;101060.75;4958693;28;1075;-49
2024/01/17 06:09:24;;;;;;;;;;;;;;;17.20;34.73;101066.66;4958548;28;1081;-50
2024/01/17 06:11:50;;;;;;;;;;;;;;;15.70;37.61;101066.72;4959318;28;1021;-49
2024/01/17 06:14:15;;;;;;;;;;;;;;;15.31;38.49;101077.13;4946327;28;2521;-49
2024/01/17 06:16:41;;;;;;;;;;;;;;;16.53;36.14;101072.88;4958767;28;1906;-50
2024/01/17 06:19:07;;;;;;;;;;;;;;;15.37;38.68;101065.28;4946379;28;1240;-48
2024/01/17 06:21:32;;;;;;;;;;;;;;;16.63;36.45;101070.44;4958481;28;919;-46
2024/01/17 06:23:58;;;;;;;;;;;;;;;17.68;34.32;101073.03;4958777;28;1129;-48
2024/01/17 06:26:23;;;;;;;;;;;;;;;15.90;37.37;101070.75;4958944;28;1096;-49
2024/01/17 06:28:49;;;;;;;;;;;;;;;15.54;38.30;101080.13;4956705;28;1287;-53
2024/01/17 06:31:22;;;;;;;;;;;;;;;17.46;34.72;101080.75;4957990;28;945;-56
2024/01/17 06:33:48;;;;;;;;;;;;;;;15.80;37.54;101080.25;4956510;29;1087;-52
2024/01/17 06:36:14;;;;;;;;;;;;;;;16.60;36.46;101080.44;4958651;28;997;-51
2024/01/17 06:38:39;;;;;;;;;;;;;;;16.45;36.35;101077.84;4957843;28;1984;-52
2024/01/17 06:41:05;;;;;;;;;;;;;;;15.50;38.67;101071.50;4949843;28;1060;-52
2024/01/17 06:43:30;;;;;;;;;;;;;;;16.86;36.05;101070.69;4954348;29;2414;-51
2024/01/17 06:45:56;;;;;;;;;;;;;;;16.15;36.87;101070.97;4952207;28;907;-51
2024/01/17 06:48:22;;;;;;;;;;;;;;;15.53;38.62;101083.75;4958182;28;1009;-56
2024/01/17 06:50:47;;;;;;;;;;;;;;;17.19;35.30;101073.75;4949211;28;1180;-47
2024/01/17 06:53:15;;;;;;;;;;;;;;;16.25;37.00;101066.75;4955121;29;1081;-47
2024/01/17 06:55:41;;;;;;;;;;;;;;;15.50;38.64;101063.56;4948814;28;1160;-52
2024/01/17 06:58:07;;;;;;;;;;;;;;;17.35;35.30;101076.19;4942931;29;1959;-51
2024/01/17 07:00:32;;;;;;;;;;;;;;;17.01;35.60;101067.91;4958421;28;1123;-51
2024/01/17 07:02:58;;;;;;;;;;;;;;;15.94;37.67;101075.84;4957848;28;1013;-49
2024/01/17 07:05:23;;;;;;;;;;;;;;;15.45;38.76;101068.28;4957915;28;1144;-49
2024/01/17 07:07:49;;;;;;;;;;;;;;;17.51;34.97;101072.44;4958413;28;993;-52
2024/01/17 07:10:15;;;;;;;;;;;;;;;16.27;36.35;101077.28;4957705;28;891;-54
2024/01/17 07:12:40;;;;;;;;;;;;;;;15.72;37.22;101072.78;4958148;28;1018;-57
2024/01/17 07:15:06;;;;;;;;;;;;;;;15.28;37.90;101085.28;4958100;28;2640;-54
2024/01/17 07:17:32;;;;;;;;;;;;;;;14.93;38.76;101083.84;4954439;28;1978;-53
2024/01/17 07:19:57;;;;;;;;;;;;;;;14.77;39.11;101087.38;4948878;29;1112;-54
2024/01/17 07:22:23;;;;;;;;;;;;;;;17.12;34.76;101081.31;4956268;28;1228;-51
2024/01/17 07:24:48;;;;;;;;;;;;;;;15.47;37.60;101081.44;4958053;28;1065;-54
2024/01/17 07:27:14;;;;;;;;;;;;;;;14.95;39.24;101083.75;4957156;28;1109;-53
2024/01/17 07:29:39;;;;;;;;;;;;;;;14.69;39.21;101073.75;4945631;29;1045;-52
2024/01/17 07:32:05;;;;;;;;;;;;;;;15.26;38.87;101069.47;4957901;28;1113;-53
2024/01/17 07:34:31;;;;;;;;;;;;;;;16.67;35.67;101062.25;4954336;29;1219;-52
2024/01/17 07:36:56;;;;;;;;;;;;;;;15.35;37.78;101054.75;4951840;28;1978;-54
2024/01/17 07:39:22;;;;;;;;;;;;;;;14.75;39.40;101057.47;4957660;28;1207;-46
2024/01/17 07:41:48;;;;;;;;;;;;;;;14.65;39.57;101066.91;4957693;28;1028;-50
2024/01/17 07:44:14;;;;;;;;;;;;;;;14.40;39.89;101077.16;4957774;28;1908;-52
2024/01/17 07:46:39;;;;;;;;;;;;;;;14.83;39.67;101064.97;4950513;29;1091;-49
2024/01/17 07:49:05;;;;;;;;;;;;;;;16.95;35.50;101063.03;4939297;29;1013;-50
2024/01/17 07:51:31;;;;;;;;;;;;;;;15.44;38.25;101066.59;4960356;29;1240;-49
2024/01/17 07:53:57;;;;;;;;;;;;;;;14.85;39.41;101056.97;4961778;28;1072;-50
2024/01/17 07:56:22;;;;;;;;;;;;;;;14.73;39.30;101075.25;4961611;28;1060;-45
2024/01/17 07:58:49;;;;;;;;;;;;;;;16.18;36.78;101065.47;4953654;28;1969;-43
2024/01/17 08:01:15;;;;;;;;;;;;;;;16.46;35.78;101066.28;4959069;28;1476;-50
2024/01/17 08:03:41;;;;;;;;;;;;;;;15.20;38.34;101066.34;4951009;29;1085;-49
2024/01/17 08:06:07;;;;;;;;;;;;;;;16.39;36.32;101065.84;4961264;28;1184;-48
2024/01/17 08:08:32;;;;;;;;;;;;;;;16.94;35.05;101050.69;4961792;28;1001;-50
2024/01/17 08:10:58;;;;;;;;;;;;;;;15.54;37.89;101059.78;4959032;28;1219;-50
2024/01/17 08:13:23;;;;;;;;;;;;;;;16.56;36.24;101065.66;4961400;28;1843;-49
2024/01/17 08:15:50;;;;;;;;;;;;;;;16.12;36.89;101058.75;4961151;28;1030;-48
2024/01/17 08:18:16;;;;;;;;;;;;;;;15.25;38.70;101056.28;4961556;28;1895;-50
2024/01/17 08:20:43;;;;;;;;;;;;;;;17.44;34.67;101052.53;4961595;28;1096;-48
2024/01/17 08:23:08;;;;;;;;;;;;;;;15.75;37.62;101043.41;4955492;28;1221;-47
2024/01/17 08:25:34;;;;;;;;;;;;;;;15.19;39.04;101044.28;4961143;28;1124;-49
2024/01/17 08:27:59;;;;;;;;;;;;;;;14.98;39.27;101038.53;4960991;28;1068;-48
2024/01/17 08:30:26;;;;;;;;;;;;;;;15.80;38.16;101043.09;4948682;28;1059;-47
2024/01/17 08:32:53;;;;;;;;;;;;;;;17.57;34.39;101045.38;4960707;28;1017;-51
2024/01/17 08:35:19;;;;;;;;;;;;;;;15.88;37.07;101039.97;4960683;28;979;-45
2024/01/17 08:37:45;;;;;;;;;;;;;;;15.22;38.69;101030.84;4959665;28;1898;-47
2024/01/17 08:40:11;;;;;;;;;;;;;;;14.91;39.51;101028.28;4960228;28;1095;-48
2024/01/17 08:42:37;;;;;;;;;;;;;;;14.95;39.25;101034.25;4950923;29;957;-50
2024/01/17 08:45:03;;;;;;;;;;;;;;;17.18;35.30;101034.84;4972439;28;1838;-48
2024/01/17 08:47:29;;;;;;;;;;;;;;;15.70;37.91;101032.25;4950845;29;1226;-48
2024/01/17 08:49:56;;;;;;;;;;;;;;;15.14;38.69;101028.69;4959462;28;1044;-48
2024/01/17 08:52:22;;;;;;;;;;;;;;;14.93;39.37;101022.91;4959224;28;1156;-48
2024/01/17 08:54:48;;;;;;;;;;;;;;;14.66;40.06;101015.66;4958970;28;1522;-44
2024/01/17 08:57:13;;;;;;;;;;;;;;;16.45;36.80;101019.41;4958623;28;1964;-46
2024/01/17 08:59:39;;;;;;;;;;;;;;;15.98;37.21;101013.69;4958368;28;1019;-46
2024/01/17 09:02:05;;;;;;;;;;;;;;;15.32;38.47;101019.66;4958756;28;1127;-50
2024/01/17 09:04:31;;;;;;;;;;;;;;;14.80;39.57;101007.75;4954186;28;1085;-46
2024/01/17 09:06:56;;;;;;;;;;;;;;;14.69;39.73;101008.41;4958702;28;1064;-45
2024/01/17 09:09:24;;;;;;;;;;;;;;;16.74;36.21;101007.75;4958435;28;1095;-46
2024/01/17 09:11:50;;;;;;;;;;;;;;;16.35;36.14;100999.78;4947745;29;1118;-51
2024/01/17 09:14:19;;;;;;;;;;;;;;;15.17;39.01;100996.69;4956890;28;2375;-47
2024/01/17 09:16:45;;;;;;;;;;;;;;;17.34;34.85;100991.19;4959517;28;1910;-50
2024/01/17 09:19:10;;;;;;;;;;;;;;;15.74;37.74;100979.84;4960161;28;1097;-53
2024/01/17 09:21:36;;;;;;;;;;;;;;;15.67;38.30;100990.00;4960034;28;1058;-46
2024/01/17 09:24:02;;;;;;;;;;;;;;;17.23;35.01;100978.69;4959947;28;1085;-49
2024/01/17 09:26:28;;;;;;;;;;;;;;;15.70;38.00;100979.19;4958373;28;1303;-51
2024/01/17 09:28:54;;;;;;;;;;;;;;;15.13;39.11;100973.97;4954015;28;1322;-49
2024/01/17 09:31:19;;;;;;;;;;;;;;;15.50;38.69;100977.84;4959842;28;1096;-48
2024/01/17 09:33:45;;;;;;;;;;;;;;;17.18;35.07;100978.16;4962409;28;1089;-45
2024/01/17 09:36:10;;;;;;;;;;;;;;;15.64;37.77;100975.16;4956822;28;1366;-45
2024/01/17 09:38:36;;;;;;;;;;;;;;;15.12;38.83;100972.25;4959793;28;1980;-47
2024/01/17 09:41:02;;;;;;;;;;;;;;;14.94;39.45;100955.72;4959669;28;1334;-44
2024/01/17 09:43:27;;;;;;;;;;;;;;;15.65;38.26;100950.34;4958143;29;2369;-47
2024/01/17 09:45:56;;;;;;;;;;;;;;;16.85;35.42;100953.88;4958544;28;1053;-48
2024/01/17 09:48:23;;;;;;;;;;;;;;;15.40;38.58;100946.63;4958576;28;1587;-49
2024/01/17 09:50:49;;;;;;;;;;;;;;;15.03;38.99;100943.72;4969810;28;1093;-45
2024/01/17 09:53:14;;;;;;;;;;;;;;;13.92;39.59;100792.47;4958241;28;1390;-45
2024/01/17 09:55:41;;;;;;;;;;;;;;;14.90;39.84;100931.22;4972468;28;1529;-49
2024/01/17 09:58:06;;;;;;;;;;;;;;;17.11;35.34;100927.25;4957708;28;1907;-47
2024/01/17 10:00:32;;;;;;;;;;;;;;;15.81;37.50;100928.13;4958245;29;1346;-48
2024/01/17 10:02:58;;;;;;;;;;;;;;;15.13;38.74;100910.34;4958026;28;1282;-48
2024/01/17 10:05:25;;;;;;;;;;;;;;;16.50;36.70;100910.22;4959120;28;1176;-46
2024/01/17 10:07:52;;;;;;;;;;;;;;;16.02;37.17;100909.06;4958236;28;1543;-46
2024/01/17 10:10:21;;;;;;;;;;;;;;;15.23;38.48;100901.84;4955770;28;1319;-44
2024/01/17 10:12:47;;;;;;;;;;;;;;;14.91;39.16;100893.19;4954130;28;1303;-48
2024/01/17 10:15:13;;;;;;;;;;;;;;;15.67;38.42;100881.28;4958223;28;2341;-48
2024/01/17 10:17:39;;;;;;;;;;;;;;;17.45;34.53;100876.06;4958403;28;2000;-47
2024/01/17 10:20:04;;;;;;;;;;;;;;;15.78;37.33;100873.44;4958877;28;1048;-46
2024/01/17 10:22:31;;;;;;;;;;;;;;;15.26;38.44;100870.69;4957285;28;1319;-47
2024/01/17 10:24:57;;;;;;;;;;;;;;;16.03;37.61;100866.50;4959020;28;922;-47
2024/01/17 10:27:22;;;;;;;;;;;;;;;16.38;36.36;100856.19;4957617;29;1421;-45
2024/01/17 10:29:48;;;;;;;;;;;;;;;15.36;38.45;100847.06;4958876;28;1552;-47
2024/01/17 10:32:13;;;;;;;;;;;;;;;14.97;39.43;100849.56;4958491;28;1131;-51
2024/01/17 10:34:44;;;;;;;;;;;;;;;14.68;39.91;100849.63;5103166;27;1523;-50
2024/01/17 10:37:11;;;;;;;;;;;;;;;14.55;39.92;100853.03;5112706;28;1101;-47
2024/01/17 10:39:37;;;;;;;;;;;;;;;16.93;35.63;100841.72;5099890;28;1068;-48
2024/01/17 10:42:05;;;;;;;;;;;;;;;16.66;35.63;100848.91;5113880;28;1034;-49
2024/01/17 10:44:31;;;;;;;;;;;;;;;15.41;38.48;100836.16;5091199;28;2469;-48
2024/01/17 10:46:56;;;;;;;;;;;;;;;15.04;38.90;100836.78;5087740;28;1204;-48
2024/01/17 10:49:22;;;;;;;;;;;;;;;16.95;35.68;100834.47;5081264;28;1347;-47
2024/01/17 10:52:09;;;;;;;;;;;;;;;16.25;36.52;100827.84;5097542;28;1094;-49
2024/01/17 10:54:49;;;;;;;;;;;;;;;15.35;38.65;100829.44;5085845;28;1977;-51
2024/01/17 10:57:14;;;;;;;;;;;;;;;14.97;39.20;100824.88;5075071;28;1324;-46
2024/01/17 10:59:41;;;;;;;;;;;;;;;16.14;37.52;100822.44;5079906;28;1570;-48
2024/01/17 11:02:06;;;;;;;;;;;;;;;16.47;36.26;100823.66;5102362;28;1109;-46
2024/01/17 11:04:34;;;;;;;;;;;;;;;15.40;38.62;100806.13;5084078;28;991;-47
2024/01/17 11:07:00;;;;;;;;;;;;;;;14.97;39.21;100812.47;5106758;28;1231;-47
2024/01/17 11:09:26;;;;;;;;;;;;;;;16.88;35.74;100808.34;5090167;28;1057;-47
2024/01/17 11:11:52;;;;;;;;;;;;;;;15.86;37.40;100787.19;5104068;28;1118;-49
2024/01/17 11:14:17;;;;;;;;;;;;;;;16.80;36.25;100783.31;5074254;28;2493;-44
2024/01/17 11:16:46;;;;;;;;;;;;;;;17.50;34.38;100776.34;5087342;28;1220;-47
2024/01/17 11:19:11;;;;;;;;;;;;;;;15.96;37.26;100779.44;5091064;28;1369;-46
2024/01/17 11:21:37;;;;;;;;;;;;;;;15.38;38.74;100772.75;5103818;28;1325;-44
2024/01/17 11:24:22;;;;;;;;;;;;;;;16.73;35.87;100759.84;5081001;28;1382;-46
2024/01/17 11:26:47;;;;;;;;;;;;;;;15.59;38.46;100762.47;5103473;28;983;-48
2024/01/17 11:29:19;;;;;;;;;;;;;;;15.05;39.33;100766.94;5099532;28;1065;-49
2024/01/17 11:31:56;;;;;;;;;;;;;;;14.68;39.95;100775.47;5097467;28;1685;-45
2024/01/17 11:34:22;;;;;;;;;;;;;;;15.27;41.49;100763.72;5118842;28;1988;-48
2024/01/17 11:36:47;;;;;;;;;;;;;;;15.87;40.24;100781.78;5083999;28;1063;-46
2024/01/17 11:39:17;;;;;;;;;;;;;;;14.98;42.68;100776.25;5098100;28;1106;-46
2024/01/17 11:41:43;;;;;;;;;;;;;;;15.37;42.12;100763.94;5103552;28;1021;-46
2024/01/17 11:44:10;;;;;;;;;;;;;;;17.41;38.48;100761.09;5098352;28;1803;-39
2024/01/17 11:46:35;;;;;;;;;;;;;;;15.74;41.14;100762.38;5087872;28;1022;-39
2024/01/17 11:49:01;;;;;;;;;;;;;;;17.02;39.32;100754.19;5104631;28;1082;-47
2024/01/17 11:51:27;;;;;;;;;;;;;;;16.83;38.99;100756.53;5109931;28;994;-50
2024/01/17 11:53:53;;;;;;;;;;;;;;;15.66;41.51;100749.66;5095601;28;1983;-47
2024/01/17 11:56:22;;;;;;;;;;;;;;;17.32;38.55;100741.38;5102070;28;1212;-48
2024/01/17 11:58:51;;;;;;;;;;;;;;;16.62;39.45;100733.22;5106181;28;1125;-50
2024/01/17 12:01:22;;;;;;;;;;;;;;;15.78;41.37;100735.53;5111881;28;1054;-42
2024/01/17 12:03:48;;;;;;;;;;;;;;;15.58;42.09;100733.41;5095706;28;1185;-45
2024/01/17 12:06:14;;;;;;;;;;;;;;;17.12;38.63;100742.88;5106640;28;996;-47
2024/01/17 12:08:40;;;;;;;;;;;;;;;15.75;41.14;100733.09;5084414;28;1111;-47
2024/01/17 12:11:09;;;;;;;;;;;;;;;15.25;42.45;100727.66;5087285;28;1009;-53
2024/01/17 12:13:36;;;;;;;;;;;;;;;15.10;42.59;100730.38;5091141;28;2318;-48
2024/01/17 12:16:01;;;;;;;;;;;;;;;16.47;40.23;100727.22;5086297;28;1178;-50
2024/01/17 12:18:27;;;;;;;;;;;;;;;16.57;39.50;100730.91;5089838;28;1430;-47
2024/01/17 12:20:56;;;;;;;;;;;;;;;15.49;41.74;100727.78;5089592;28;1072;-49
2024/01/17 12:23:24;;;;;;;;;;;;;;;15.09;42.43;100727.84;5087789;28;1161;-45
2024/01/17 12:25:51;;;;;;;;;;;;;;;17.24;38.26;100726.00;5085491;28;1059;-45
2024/01/17 12:28:18;;;;;;;;;;;;;;;16.48;39.79;100724.47;5084390;28;1145;-43
2024/01/17 12:30:56;;;;;;;;;;;;;;;16.54;39.72;100728.47;5098005;28;1429;-48
2024/01/17 12:33:23;;;;;;;;;;;;;;;18.01;36.78;100722.81;5084771;28;1907;-47
2024/01/17 12:35:50;;;;;;;;;;;;;;;16.21;40.12;100727.31;5079239;28;1343;-46
2024/01/17 12:38:16;;;;;;;;;;;;;;;15.66;41.20;100725.78;5097137;28;1350;-44
2024/01/17 12:40:43;;;;;;;;;;;;;;;15.38;41.60;100725.03;5094551;28;1339;-44
2024/01/17 12:43:08;;;;;;;;;;;;;;;15.10;42.26;100726.91;5084787;28;2366;-46